createdAt,value
2019-04-28T00:04:01.387Z,54.25
2019-04-28T00:09:11.480Z,49.80
2019-04-28T00:14:21.891Z,156.18
2019-04-28T00:19:31.020Z,78.50
2019-04-28T00:24:41.620Z,63.13
2019-04-28T00:29:51.699Z,53.08
2019-04-28T00:34:59.074Z,48.83
2019-04-28T00:40:10.972Z,42.20
2019-04-28T00:45:19.284Z,43.38
2019-04-28T00:50:27.310Z,42.38
2019-04-28T00:55:35.822Z,40.03
2019-04-28T01:00:45.892Z,40.25
2019-04-28T01:05:54.305Z,33.30
2019-04-28T01:11:06.035Z,35.90
2019-04-28T01:16:14.883Z,35.13
2019-04-28T01:21:25.158Z,32.85
2019-04-28T01:26:33.783Z,29.45
2019-04-28T01:31:43.399Z,29.80
2019-04-28T01:36:51.928Z,32.05
2019-04-28T01:42:00.614Z,28.77
2019-04-28T01:47:10.079Z,28.87
2019-04-28T01:52:20.188Z,21.05
2019-04-28T01:57:27.375Z,17.47
2019-04-28T02:02:36.177Z,21.00
2019-04-28T02:07:44.418Z,19.20
2019-04-28T02:12:52.774Z,19.98
2019-04-28T02:18:00.828Z,22.32
2019-04-28T02:23:10.566Z,18.42
2019-04-28T02:28:19.790Z,15.68
2019-04-28T02:33:31.116Z,17.00
2019-04-28T02:38:37.669Z,16.00
2019-04-28T02:43:45.657Z,13.08
2019-04-28T02:48:54.615Z,15.60
2019-04-28T02:54:02.836Z,16.65
2019-04-28T02:59:14.098Z,17.17
2019-04-28T03:04:22.438Z,20.55
2019-04-28T03:09:31.052Z,19.07
2019-04-28T03:14:43.456Z,11.85
2019-04-28T03:19:51.364Z,17.95
2019-04-28T03:25:00.903Z,17.37
2019-04-28T03:30:13.280Z,18.90
2019-04-28T03:35:22.887Z,13.65
2019-04-28T03:40:33.923Z,12.83
2019-04-28T03:45:42.909Z,17.05
2019-04-28T03:50:51.362Z,14.78
2019-04-28T03:56:01.506Z,14.63
2019-04-28T04:01:10.822Z,15.80
2019-04-28T04:06:19.532Z,19.77
2019-04-28T04:11:31.174Z,16.07
2019-04-28T04:16:40.788Z,14.93
2019-04-28T04:21:50.557Z,13.53
2019-04-28T04:27:00.651Z,18.17
2019-04-28T04:32:14.786Z,16.80
2019-04-28T04:37:20.541Z,18.62
2019-04-28T04:42:30.453Z,13.43
2019-04-28T04:47:40.442Z,15.38
2019-04-28T04:52:50.051Z,19.30
2019-04-28T05:03:05.429Z,14.55
2019-04-28T05:08:15.461Z,16.75
2019-04-28T05:13:22.993Z,18.07
2019-04-28T05:18:31.198Z,13.55
2019-04-28T05:23:41.059Z,22.55
2019-04-28T05:28:53.269Z,14.75
2019-04-28T05:33:59.918Z,15.45
2019-04-28T05:39:10.460Z,15.20
2019-04-28T05:44:20.131Z,16.77
2019-04-28T05:49:29.683Z,13.93
2019-04-28T05:54:40.349Z,23.50
2019-04-28T05:59:50.520Z,11.73
2019-04-28T06:04:59.951Z,14.30
2019-04-28T06:15:16.103Z,18.67
2019-04-28T06:20:24.466Z,18.90
2019-04-28T06:25:32.923Z,10.85
2019-04-28T06:30:41.288Z,17.15
2019-04-28T06:35:49.261Z,15.15
2019-04-28T06:40:57.430Z,16.35
2019-04-28T06:46:05.620Z,19.57
2019-04-28T06:51:14.041Z,16.82
2019-04-28T06:56:22.355Z,12.75
2019-04-28T07:01:30.719Z,17.87
2019-04-28T07:06:39.434Z,16.90
2019-04-28T07:11:47.936Z,16.93
2019-04-28T07:16:56.572Z,11.40
2019-04-28T07:22:06.564Z,9.55
2019-04-28T07:27:14.883Z,14.40
2019-04-28T07:32:23.388Z,17.47
2019-04-28T07:37:31.669Z,12.10
2019-04-28T07:42:39.979Z,16.17
2019-04-28T07:47:48.264Z,11.10
2019-04-28T07:52:57.266Z,13.08
2019-04-28T07:58:05.450Z,16.30
2019-04-28T08:03:14.173Z,15.73
2019-04-28T08:08:23.834Z,13.00
2019-04-28T08:13:32.371Z,13.03
2019-04-28T08:18:44.011Z,12.07
2019-04-28T08:23:52.543Z,12.80
2019-04-28T08:29:00.406Z,12.33
2019-04-28T08:34:10.542Z,17.30
2019-04-28T08:39:18.990Z,16.57
2019-04-28T08:44:27.457Z,12.33
2019-04-28T08:49:35.604Z,11.63
2019-04-28T08:54:43.571Z,15.23
2019-04-28T08:59:52.039Z,13.62
2019-04-28T09:05:00.435Z,14.73
2019-04-28T09:10:09.781Z,15.60
2019-04-28T09:20:25.378Z,16.12
2019-04-28T09:25:34.972Z,14.37
2019-04-28T09:30:43.638Z,19.45
2019-04-28T09:35:52.239Z,10.82
2019-04-28T09:41:00.756Z,16.40
2019-04-28T09:46:10.586Z,9.13
2019-04-28T09:51:18.795Z,12.55
2019-04-28T09:56:26.927Z,13.75
2019-04-28T10:01:34.937Z,14.20
2019-04-28T10:06:43.326Z,36.23
2019-04-28T10:11:51.487Z,29.95
2019-04-28T10:17:00.176Z,23.73
2019-04-28T10:27:17.429Z,28.40
2019-04-28T10:32:25.764Z,21.13
2019-04-28T10:37:33.455Z,26.48
2019-04-28T10:42:41.414Z,25.00
2019-04-28T10:47:49.570Z,24.90
2019-04-28T10:52:57.662Z,28.47
2019-04-28T10:58:05.463Z,23.35
2019-04-28T11:03:13.485Z,29.67
2019-04-28T11:08:22.450Z,33.00
2019-04-28T11:13:30.266Z,25.02
2019-04-28T11:18:37.872Z,22.10
2019-04-28T11:23:45.785Z,31.70
2019-04-28T11:28:54.405Z,34.80
2019-04-28T11:34:03.598Z,35.95
2019-04-28T11:39:21.512Z,32.17
2019-04-28T11:44:29.313Z,28.73
2019-04-28T11:49:37.110Z,30.62
2019-04-28T11:54:44.747Z,32.23
2019-04-28T11:59:54.069Z,38.25
2019-04-28T12:05:02.389Z,36.95
2019-04-28T12:10:11.557Z,38.40
2019-04-28T12:15:20.959Z,61.77
2019-04-28T12:20:28.577Z,50.83
2019-04-28T12:25:37.654Z,55.25
2019-04-28T12:30:45.676Z,39.50
2019-04-28T12:35:57.784Z,39.97
2019-04-28T12:41:05.609Z,40.00
2019-04-28T12:46:13.811Z,41.88
2019-04-28T12:51:21.832Z,39.05
2019-04-28T12:56:29.752Z,40.10
2019-04-28T13:01:38.660Z,33.63
2019-04-28T13:06:47.843Z,37.53
2019-04-28T13:11:55.678Z,33.80
2019-04-28T13:17:03.575Z,72.92
2019-04-28T13:22:11.289Z,52.75
2019-04-28T13:27:19.201Z,41.80
2019-04-28T13:32:27.015Z,22.77
2019-04-28T13:37:34.852Z,26.77
2019-04-28T13:42:42.710Z,18.85
2019-04-28T13:47:50.711Z,25.12
2019-04-28T13:52:58.774Z,22.73
2019-04-28T13:58:06.898Z,19.02
2019-04-28T14:03:17.404Z,19.75
2019-04-28T14:08:25.182Z,25.40
2019-04-28T14:13:33.159Z,23.62
2019-04-28T14:18:41.168Z,15.95
2019-04-28T14:23:49.189Z,20.32
2019-04-28T14:29:01.109Z,22.30
2019-04-28T14:34:13.501Z,19.98
2019-04-28T14:39:38.884Z,15.80
2019-04-28T14:45:19.428Z,13.95
2019-04-28T14:50:28.687Z,14.20
2019-04-28T14:55:38.105Z,12.00
2019-04-28T15:00:47.369Z,18.60
2019-04-28T15:05:57.786Z,15.80
2019-04-28T15:11:26.992Z,14.65
2019-04-28T15:16:35.149Z,12.60
2019-04-28T15:21:43.228Z,15.85
2019-04-28T15:26:51.364Z,13.50
2019-04-28T15:37:35.161Z,16.15
2019-04-28T15:42:42.948Z,14.87
2019-04-28T15:47:50.960Z,12.65
2019-04-28T15:52:59.249Z,17.92
2019-04-28T15:58:08.434Z,16.97
2019-04-28T16:03:16.398Z,14.70
2019-04-28T16:08:24.217Z,20.20
2019-04-28T16:13:32.173Z,18.48
2019-04-28T16:18:40.214Z,15.85
2019-04-28T16:23:48.775Z,12.80
2019-04-28T16:28:56.832Z,17.73
2019-04-28T16:34:04.775Z,19.75
2019-04-28T16:39:13.928Z,17.62
2019-04-28T16:44:25.875Z,19.55
2019-04-28T16:49:34.947Z,14.65
2019-04-28T16:54:42.880Z,20.50
2019-04-28T16:59:52.818Z,20.08
2019-04-28T17:05:01.138Z,17.48
2019-04-28T17:10:10.338Z,26.40
2019-04-28T17:15:18.340Z,19.40
2019-04-28T17:20:26.741Z,18.65
2019-04-28T17:25:34.574Z,17.37
2019-04-28T17:30:42.958Z,17.17
2019-04-28T17:35:51.279Z,21.02
2019-04-28T17:40:59.222Z,15.30
2019-04-28T17:46:07.353Z,25.25
2019-04-28T17:51:16.328Z,24.47
2019-04-28T17:56:24.030Z,22.25
2019-04-28T18:01:33.053Z,20.20
2019-04-28T18:06:42.797Z,26.42
2019-04-28T18:11:53.779Z,28.17
2019-04-28T18:17:02.650Z,30.65
2019-04-28T18:22:11.089Z,29.10
2019-04-28T18:27:19.172Z,26.10
2019-04-28T18:32:28.463Z,28.47
2019-04-28T18:37:37.866Z,28.65
2019-04-28T18:48:13.922Z,27.70
2019-04-28T18:53:22.477Z,26.93
2019-04-28T18:58:33.252Z,28.17
2019-04-28T19:08:50.300Z,29.67
2019-04-28T19:13:59.691Z,25.27
2019-04-28T19:19:09.104Z,27.85
2019-04-28T19:24:18.244Z,25.85
2019-04-28T19:29:27.618Z,26.03
2019-04-28T19:34:36.830Z,33.08
2019-04-28T19:39:45.268Z,25.72
2019-04-28T19:44:53.576Z,22.02
2019-04-28T19:50:01.932Z,30.40
2019-04-28T19:55:12.484Z,24.55
2019-04-28T20:00:22.092Z,23.73
2019-04-28T20:05:32.520Z,20.48
2019-04-28T20:10:40.575Z,27.10
2019-04-28T20:15:48.992Z,24.98
2019-04-28T20:20:57.120Z,21.35
2019-04-28T20:26:05.285Z,23.85
2019-04-28T20:31:13.213Z,28.87
2019-04-28T20:36:22.321Z,22.98
2019-04-28T20:41:34.930Z,25.57
2019-04-28T20:46:43.630Z,22.15
2019-04-28T20:51:53.454Z,21.82
2019-04-28T20:57:21.270Z,20.10
2019-04-28T21:02:32.133Z,19.82
2019-04-28T21:07:41.358Z,19.10
2019-04-28T21:12:49.707Z,19.17
2019-04-28T21:17:58.359Z,15.72
2019-04-28T21:23:06.431Z,16.07
2019-04-28T21:28:14.628Z,20.25
2019-04-28T21:33:23.710Z,17.87
2019-04-28T21:38:32.042Z,18.65
2019-04-28T21:43:41.832Z,18.73
2019-04-28T21:48:51.034Z,20.35
2019-04-28T21:53:59.695Z,16.62
2019-04-28T21:59:08.172Z,19.90
2019-04-28T22:04:16.599Z,31.02
2019-04-28T22:09:25.085Z,23.02
2019-04-28T22:14:34.492Z,24.70
2019-04-28T22:19:51.468Z,22.50
2019-04-28T22:25:21.801Z,18.90
2019-04-28T22:30:49.923Z,34.37
2019-04-28T22:35:59.202Z,28.32
2019-04-28T22:41:07.887Z,26.93
2019-04-28T22:46:16.546Z,35.83
2019-04-28T22:51:33.015Z,37.63
2019-04-28T22:57:02.745Z,30.95
2019-04-28T23:02:12.345Z,34.13
2019-04-28T23:07:23.870Z,29.75
2019-04-28T23:12:35.260Z,29.70
2019-04-28T23:17:48.901Z,27.02
2019-04-28T23:23:03.465Z,28.32
2019-04-28T23:28:21.032Z,29.10
2019-04-28T23:33:36.647Z,29.37
2019-04-28T23:38:51.882Z,35.20
2019-04-28T23:44:13.352Z,39.63
2019-04-28T23:49:32.249Z,30.00
2019-04-28T23:54:42.322Z,35.75
2019-04-28T23:59:56.014Z,28.30
